Time;durP1;ratioP1;P1;durP2;ratioP2;P2;SDS_P1;SDS_P2;PMS_P1;PMS_P2;Temp;Humidity;BMP_temperature;BMP_pressure;BME280_temperature;BME280_humidity;BME280_pressure;Samples;Min_cycle;Max_cycle;Signal;HPM_P1;HPM_P2
2022/04/28 00:00:59;;;;;;;20.55;12.20;;;;;;;6.99;100.00;97487.59;4961903;28;20049;-70
2022/04/28 00:03:25;;;;;;;20.30;14.02;;;;;;;6.98;100.00;97487.78;4961396;28;20038;-70
2022/04/28 00:05:51;;;;;;;20.58;12.55;;;;;;;6.94;100.00;97489.22;4977217;28;20572;-70
2022/04/28 00:08:16;;;;;;;17.05;12.02;;;;;;;6.92;100.00;97489.41;4961783;28;20049;-69
2022/04/28 00:10:44;;;;;;;19.27;11.52;;;;;;;6.83;100.00;97485.28;4961504;28;20038;-69
2022/04/28 00:13:12;;;;;;;21.05;11.75;;;;;;;6.78;100.00;97485.09;4962240;28;20485;-69
2022/04/28 00:15:38;;;;;;;19.40;11.73;;;;;;;6.80;100.00;97496.34;4961092;28;20039;-69
2022/04/28 00:18:04;;;;;;;17.90;12.02;;;;;;;6.78;100.00;97490.41;4974681;28;20046;-69
2022/04/28 00:20:30;;;;;;;21.40;12.77;;;;;;;6.78;100.00;97490.41;4960945;28;20462;-69
2022/04/28 00:22:55;;;;;;;20.33;11.70;;;;;;;6.79;100.00;97499.22;4961585;28;20038;-70
2022/04/28 00:25:22;;;;;;;18.55;11.30;;;;;;;6.82;100.00;97494.28;4959576;28;20494;-69
2022/04/28 00:27:48;;;;;;;20.52;12.35;;;;;;;6.82;100.00;97496.97;4963533;28;20042;-70
2022/04/28 00:30:13;;;;;;;21.48;12.40;;;;;;;6.75;100.00;97498.75;4960550;28;20042;-69
2022/04/28 00:32:39;;;;;;;21.38;12.48;;;;;;;6.68;100.00;97493.41;4961527;28;20054;-70
2022/04/28 00:35:05;;;;;;;19.63;12.05;;;;;;;6.68;100.00;97489.94;4975146;28;20046;-70
2022/04/28 00:37:31;;;;;;;20.02;12.35;;;;;;;6.66;100.00;97494.66;4961671;28;20447;-69
2022/04/28 00:39:57;;;;;;;18.35;11.48;;;;;;;6.64;100.00;97491.38;4961645;28;20147;-69
2022/04/28 00:42:22;;;;;;;19.92;12.65;;;;;;;6.66;100.00;97490.16;4958577;28;20035;-69
2022/04/28 00:44:50;;;;;;;20.63;12.60;;;;;;;6.70;100.00;97490.59;4962013;28;20094;-69
2022/04/28 00:47:16;;;;;;;15.68;11.45;;;;;;;6.67;100.00;97486.47;4962169;28;20550;-69
2022/04/28 00:52:29;;;;;;;22.17;12.40;;;;;;;6.66;100.00;97486.66;4962681;28;20031;-69
2022/04/28 00:54:55;;;;;;;20.08;12.10;;;;;;;6.62;100.00;97490.75;4961880;28;20569;-69
2022/04/28 00:57:22;;;;;;;17.30;11.77;;;;;;;6.62;100.00;97490.75;4960187;28;20035;-70
2022/04/28 00:59:50;;;;;;;18.50;11.30;;;;;;;6.55;100.00;97488.06;4961170;28;20439;-70
2022/04/28 01:02:18;;;;;;;17.52;11.75;;;;;;;6.55;100.00;97492.56;4974611;28;20058;-69
2022/04/28 01:04:48;;;;;;;20.48;11.60;;;;;;;6.56;100.00;97484.38;4976612;28;20653;-69
2022/04/28 01:07:14;;;;;;;18.05;11.73;;;;;;;6.56;100.00;97481.72;4961195;28;20090;-69
2022/04/28 01:09:41;;;;;;;18.42;11.13;;;;;;;6.55;100.00;97481.94;4976647;28;20123;-69
2022/04/28 01:12:14;;;;;;;21.73;12.02;;;;;;;6.55;100.00;97490.72;4975412;28;20046;-69
2022/04/28 01:14:43;;;;;;;21.20;11.63;;;;;;;6.53;100.00;97483.94;4953464;28;20045;-70
2022/04/28 01:17:08;;;;;;;18.15;11.00;;;;;;;6.52;100.00;97488.44;4960801;28;20027;-70
2022/04/28 01:19:35;;;;;;;18.52;11.52;;;;;;;6.51;100.00;97492.13;4975791;28;20469;-69
2022/04/28 01:22:03;;;;;;;20.88;12.07;;;;;;;6.53;100.00;97489.25;4956547;28;20352;-70
2022/04/28 01:24:30;;;;;;;20.77;12.13;;;;;;;6.48;100.00;97481.88;4975000;28;20046;-69
2022/04/28 01:26:58;;;;;;;20.08;11.57;;;;;;;6.48;100.00;97499.69;4974292;28;20034;-70
2022/04/28 01:29:23;;;;;;;18.65;12.00;;;;;;;6.41;100.00;97495.16;4954442;28;20401;-69
2022/04/28 01:31:49;;;;;;;19.67;11.65;;;;;;;6.43;100.00;97500.25;4959243;28;20048;-69
2022/04/28 01:34:15;;;;;;;18.25;11.55;;;;;;;6.43;100.00;97500.25;4957431;28;20042;-70
2022/04/28 01:36:41;;;;;;;19.48;11.68;;;;;;;6.41;100.00;97504.97;4957904;28;20035;-70
2022/04/28 01:39:08;;;;;;;19.20;12.77;;;;;;;6.36;100.00;97502.88;4977211;28;20053;-70
2022/04/28 01:41:34;;;;;;;20.40;11.13;;;;;;;6.41;100.00;97505.78;4962652;28;20393;-69
2022/04/28 01:44:05;;;;;;;20.42;11.75;;;;;;;6.45;100.00;97503.53;4973929;28;20125;-70
2022/04/28 01:46:31;;;;;;;22.40;12.57;;;;;;;6.46;100.00;97505.22;4962012;28;20046;-69
2022/04/28 01:49:16;;;;;;;18.95;11.75;;;;;;;6.46;100.00;97504.34;4946656;28;20091;-69
2022/04/28 01:54:59;;;;;;;16.73;10.52;;;;;;;6.39;100.00;97509.66;4958813;28;20051;-69
2022/04/28 01:57:36;;;;;;;21.65;11.57;;;;;;;6.32;100.00;97504.31;4976204;28;20049;-69
2022/04/28 02:00:21;;;;;;;20.15;11.75;;;;;;;6.26;100.00;97505.09;4962112;28;20276;-70
2022/04/28 02:02:54;;;;;;;18.13;11.63;;;;;;;6.23;100.00;97510.81;4955128;28;20054;-69
2022/04/28 02:05:21;;;;;;;19.77;11.65;;;;;;;6.17;100.00;97495.63;4960051;28;20060;-70
2022/04/28 02:07:47;;;;;;;18.63;11.93;;;;;;;6.19;100.00;97508.72;4972700;28;20052;-70
2022/04/28 02:10:12;;;;;;;19.50;11.02;;;;;;;6.14;100.00;97498.66;4975354;28;20101;-70
2022/04/28 02:12:38;;;;;;;22.55;11.88;;;;;;;6.11;100.00;97507.84;4976209;28;20497;-70
2022/04/28 02:15:22;;;;;;;18.25;10.32;;;;;;;6.08;100.00;97502.13;4959525;28;20043;-69
2022/04/28 02:18:08;;;;;;;16.58;10.77;;;;;;;6.11;100.00;97507.03;4953488;28;20043;-69
2022/04/28 02:20:36;;;;;;;20.27;10.23;;;;;;;6.08;100.00;97505.59;4955300;28;20039;-69
2022/04/28 02:23:02;;;;;;;23.48;11.63;;;;;;;6.06;100.00;97498.81;4974718;28;20093;-70
2022/04/28 02:25:31;;;;;;;19.08;11.50;;;;;;;6.10;100.00;97508.06;4974432;28;20046;-69
2022/04/28 02:27:57;;;;;;;21.90;11.27;;;;;;;6.07;100.00;97500.44;4977441;28;20054;-69
2022/04/28 02:30:23;;;;;;;14.48;9.95;;;;;;;6.05;100.00;97502.50;4958543;28;20038;-69
2022/04/28 02:35:43;;;;;;;18.38;11.30;;;;;;;5.95;100.00;97502.84;4959767;28;20553;-69
2022/04/28 02:38:08;;;;;;;17.90;10.85;;;;;;;5.90;100.00;97507.03;4961987;28;20043;-69
2022/04/28 02:40:34;;;;;;;19.85;11.70;;;;;;;5.85;100.00;97507.66;4966220;28;20035;-69
2022/04/28 02:43:03;;;;;;;20.63;12.88;;;;;;;5.87;100.00;97508.25;4958245;28;20043;-69
2022/04/28 02:45:29;;;;;;;19.80;11.98;;;;;;;5.85;100.00;97508.47;4976711;28;20043;-69
2022/04/28 02:47:56;;;;;;;18.67;11.48;;;;;;;5.82;100.00;97508.00;4965308;28;20039;-69
2022/04/28 02:50:22;;;;;;;19.25;11.05;;;;;;;5.85;100.00;97515.63;4974831;28;20038;-69
2022/04/28 02:52:54;;;;;;;17.65;10.80;;;;;;;5.86;100.00;97515.41;4963066;28;20046;-71
2022/04/28 02:55:21;;;;;;;18.48;11.15;;;;;;;5.84;100.00;97511.31;4962459;28;20753;-70
2022/04/28 02:57:47;;;;;;;17.20;11.05;;;;;;;5.87;100.00;97509.09;4963139;28;20554;-70
2022/04/28 03:00:15;;;;;;;17.75;10.40;;;;;;;5.92;100.00;97510.38;4976359;28;20474;-69
2022/04/28 03:02:59;;;;;;;19.85;11.38;;;;;;;5.84;100.00;97506.00;4976730;28;20054;-70
2022/04/28 03:05:25;;;;;;;19.45;10.57;;;;;;;5.83;100.00;97504.34;4963006;28;20049;-69
2022/04/28 03:10:51;;;;;;;14.88;9.85;;;;;;;5.82;100.00;97502.69;4978123;28;20058;-69
2022/04/28 03:13:23;;;;;;;19.00;11.02;;;;;;;5.78;100.00;97502.28;4975731;28;20693;-70
2022/04/28 03:15:53;;;;;;;16.30;10.85;;;;;;;5.70;100.00;97513.03;4976912;28;20481;-69
2022/04/28 03:18:24;;;;;;;18.33;10.10;;;;;;;5.69;100.00;97507.94;4961068;28;20109;-69
2022/04/28 03:20:49;;;;;;;16.42;10.88;;;;;;;5.63;100.00;97514.00;4977616;28;20042;-69
2022/04/28 03:23:15;;;;;;;16.33;10.82;;;;;;;5.54;100.00;97508.81;4961751;28;20577;-69
2022/04/28 03:25:42;;;;;;;16.92;11.43;;;;;;;5.43;100.00;97509.31;4977958;28;20062;-70
2022/04/28 03:28:08;;;;;;;17.63;10.90;;;;;;;5.34;100.00;97518.44;4976459;28;20476;-71
2022/04/28 03:30:35;;;;;;;18.83;10.38;;;;;;;5.23;100.00;97516.28;4975716;28;20549;-70
2022/04/28 03:33:16;;;;;;;17.27;10.77;;;;;;;5.13;100.00;97519.22;4958035;28;20397;-69
2022/04/28 03:35:42;;;;;;;18.92;10.52;;;;;;;5.02;100.00;97514.44;4961504;28;20105;-69
2022/04/28 03:38:11;;;;;;;20.73;10.55;;;;;;;5.02;100.00;97522.38;4976422;28;20042;-69
2022/04/28 03:40:38;;;;;;;24.00;12.20;;;;;;;4.99;100.00;97517.47;4977671;28;20042;-69
2022/04/28 03:43:04;;;;;;;18.92;10.68;;;;;;;4.94;100.00;97519.84;4960375;28;20043;-69
2022/04/28 03:45:30;;;;;;;18.70;11.18;;;;;;;4.85;100.00;97520.97;4957416;28;20074;-69
2022/04/28 03:47:56;;;;;;;18.27;11.73;;;;;;;4.79;100.00;97527.84;4961196;28;20038;-69
2022/04/28 03:50:24;;;;;;;25.98;12.63;;;;;;;4.79;100.00;97534.97;4948149;28;20030;-69
2022/04/28 03:52:50;;;;;;;26.90;13.38;;;;;;;4.75;100.00;97532.69;4977217;28;20097;-69
2022/04/28 03:55:15;;;;;;;25.80;12.88;;;;;;;4.72;100.00;97532.22;4975297;28;20121;-70
2022/04/28 03:57:41;;;;;;;22.02;12.10;;;;;;;4.67;100.00;97519.53;4976802;28;20462;-70
2022/04/28 04:00:08;;;;;;;19.23;11.65;;;;;;;4.67;100.00;97535.44;4975224;28;20043;-70
2022/04/28 04:02:36;;;;;;;23.85;10.88;;;;;;;4.61;100.00;97536.19;4961829;28;20396;-69
2022/04/28 04:05:01;;;;;;;19.02;10.70;;;;;;;4.55;100.00;97541.41;4961307;28;20497;-70
2022/04/28 04:07:29;;;;;;;16.23;10.98;;;;;;;4.55;100.00;97536.91;4976933;28;20133;-69
2022/04/28 04:10:13;;;;;;;15.93;10.32;;;;;;;4.56;100.00;97535.09;4959573;28;20050;-69
2022/04/28 04:12:42;;;;;;;17.80;10.57;;;;;;;4.56;100.00;97535.09;4977126;28;20169;-69
2022/04/28 04:15:11;;;;;;;15.68;9.73;;;;;;;4.55;100.00;97542.22;4960882;28;20034;-69
2022/04/28 04:18:05;;;;;;;15.00;10.13;;;;;;;4.54;100.00;97540.56;4940299;28;20482;-71
2022/04/28 04:20:48;;;;;;;18.90;10.98;;;;;;;4.53;100.00;97538.13;4977037;28;20038;-70
2022/04/28 04:23:13;;;;;;;21.45;11.75;;;;;;;4.52;100.00;97541.78;4974406;28;20081;-69
2022/04/28 04:25:39;;;;;;;20.27;12.48;;;;;;;4.52;100.00;97539.94;4977733;28;20034;-69
2022/04/28 04:28:12;;;;;;;18.48;11.60;;;;;;;4.52;100.00;97547.91;4976408;28;20045;-69
2022/04/28 04:33:58;;;;;;;20.70;12.10;;;;;;;4.67;100.00;97545.22;4964390;28;20050;-71
2022/04/28 04:36:23;;;;;;;22.10;12.07;;;;;;;4.71;100.00;97543.84;4977389;28;20073;-69
2022/04/28 04:38:51;;;;;;;17.15;11.23;;;;;;;4.70;100.00;97542.22;4961041;28;20560;-70
2022/04/28 04:41:17;;;;;;;20.33;11.48;;;;;;;4.80;100.00;97539.25;4963957;28;20043;-69
2022/04/28 04:43:42;;;;;;;18.95;10.90;;;;;;;4.80;100.00;97547.22;4960520;28;20066;-69
2022/04/28 04:46:09;;;;;;;18.58;11.50;;;;;;;4.84;100.00;97551.16;4978191;28;20176;-70
2022/04/28 04:48:55;;;;;;;21.23;11.40;;;;;;;4.88;100.00;97555.06;4957076;28;20039;-69
2022/04/28 04:51:39;;;;;;;19.67;11.43;;;;;;;4.90;100.00;97553.03;4977698;28;20082;-69
2022/04/28 04:54:13;;;;;;;15.15;10.43;;;;;;;4.90;100.00;97551.25;4975488;28;20045;-70
2022/04/28 04:56:40;;;;;;;17.98;11.63;;;;;;;4.96;100.00;97554.97;4963464;28;20473;-69
2022/04/28 04:59:05;;;;;;;16.35;10.45;;;;;;;5.00;100.00;97561.56;4975596;28;20121;-70
2022/04/28 05:01:31;;;;;;;19.42;11.52;;;;;;;5.03;100.00;97561.16;4975267;28;20045;-70
2022/04/28 05:04:15;;;;;;;20.55;10.57;;;;;;;5.11;100.00;97566.34;4959708;28;20402;-70
2022/04/28 05:07:00;;;;;;;21.98;11.77;;;;;;;5.15;100.00;97569.47;4961274;28;20501;-69
2022/04/28 05:09:30;;;;;;;17.77;10.85;;;;;;;5.13;100.00;97577.59;4974389;28;20039;-70
2022/04/28 05:11:56;;;;;;;19.55;11.20;;;;;;;5.18;100.00;97577.88;4957251;28;20397;-69
2022/04/28 05:14:40;;;;;;;17.70;11.30;;;;;;;5.23;100.00;97575.50;4960691;28;20827;-69
2022/04/28 05:17:06;;;;;;;18.65;10.73;;;;;;;5.18;100.00;97572.56;4975100;28;20050;-70
2022/04/28 05:19:50;;;;;;;20.67;11.02;;;;;;;5.27;100.00;97587.34;4961605;28;20611;-69
2022/04/28 05:22:42;;;;;;;21.83;12.02;;;;;;;5.39;100.00;97584.22;4952238;28;20054;-69
2022/04/28 05:25:29;;;;;;;20.08;12.63;;;;;;;5.42;100.00;97595.28;4961193;28;20573;-70
2022/04/28 05:28:13;;;;;;;24.40;12.75;;;;;;;5.55;100.00;97592.78;4975910;28;20529;-70
2022/04/28 05:30:58;;;;;;;22.67;12.65;;;;;;;5.65;100.00;97586.31;4963362;28;20058;-70
2022/04/28 05:33:58;;;;;;;19.88;11.75;;;;;;;5.75;100.00;97592.13;4901040;29;20590;-70
2022/04/28 05:36:39;;;;;;;19.92;11.05;;;;;;;5.79;100.00;97604.84;4956148;28;20046;-71
2022/04/28 05:39:05;;;;;;;21.23;11.85;;;;;;;5.83;100.00;97595.47;4960310;28;20042;-69
2022/04/28 05:41:33;;;;;;;22.70;12.45;;;;;;;5.94;100.00;97609.31;4960520;28;20432;-69
2022/04/28 05:46:43;;;;;;;21.40;13.43;;;;;;;6.13;100.00;97611.28;4956264;28;20081;-70
2022/04/28 05:49:09;;;;;;;21.35;13.10;;;;;;;6.23;100.00;97614.47;4974681;28;20031;-69
2022/04/28 05:51:35;;;;;;;21.58;12.00;;;;;;;6.37;100.00;97612.69;4961142;28;20047;-70
2022/04/28 05:54:02;;;;;;;20.63;11.77;;;;;;;6.45;100.00;97612.56;4956248;28;20039;-69
2022/04/28 05:56:28;;;;;;;20.52;12.13;;;;;;;6.54;100.00;97613.25;4958677;28;20064;-70
2022/04/28 05:58:57;;;;;;;21.23;11.55;;;;;;;6.62;100.00;97608.59;4974618;28;20831;-69
2022/04/28 06:01:55;;;;;;;17.73;11.00;;;;;;;6.75;100.00;97617.66;4939118;28;20051;-70
2022/04/28 06:04:25;;;;;;;18.58;11.30;;;;;;;6.85;100.00;97618.16;4961207;28;20115;-69
2022/04/28 06:06:51;;;;;;;21.13;11.50;;;;;;;6.99;100.00;97619.84;4979975;28;20035;-69
2022/04/28 06:09:25;;;;;;;18.30;11.10;;;;;;;7.08;100.00;97623.16;4978329;28;20070;-69
2022/04/28 06:11:51;;;;;;;19.63;11.55;;;;;;;7.20;100.00;97626.91;4965302;28;20189;-69
2022/04/28 06:14:17;;;;;;;15.45;10.70;;;;;;;7.27;100.00;97617.09;4959222;28;20053;-69
2022/04/28 06:16:45;;;;;;;24.70;10.70;;;;;;;7.41;100.00;97618.78;4965475;28;20034;-69
2022/04/28 06:19:20;;;;;;;19.63;10.85;;;;;;;7.53;100.00;97627.00;4978483;28;20053;-70
2022/04/28 06:22:03;;;;;;;15.98;10.70;;;;;;;7.61;100.00;97621.50;4965193;28;20859;-69
2022/04/28 06:24:33;;;;;;;18.50;10.15;;;;;;;7.69;100.00;97626.63;4980079;28;20042;-69
2022/04/28 06:26:59;;;;;;;19.80;10.63;;;;;;;7.78;100.00;97624.59;4965087;28;20047;-69
2022/04/28 06:29:26;;;;;;;16.52;10.55;;;;;;;7.87;100.00;97636.75;4957855;28;20130;-69
2022/04/28 06:31:54;;;;;;;19.65;10.48;;;;;;;7.94;100.00;97632.25;4963926;28;20053;-69
2022/04/28 06:34:43;;;;;;;18.05;10.32;;;;;;;7.98;100.00;97633.47;4963948;28;20061;-70
2022/04/28 06:37:14;;;;;;;17.00;10.57;;;;;;;8.06;100.00;97625.25;4979439;28;20031;-69
2022/04/28 06:39:44;;;;;;;17.00;10.23;;;;;;;8.15;100.00;97633.06;4978207;28;20112;-69
2022/04/28 06:42:10;;;;;;;21.20;10.93;;;;;;;8.25;100.00;97639.66;4961087;28;20286;-69
2022/04/28 06:44:54;;;;;;;17.05;10.07;;;;;;;8.33;100.00;97630.63;4963383;28;20046;-69
2022/04/28 06:47:39;;;;;;;14.73;10.05;;;;;;;8.42;100.00;97633.94;4964314;28;20035;-69
2022/04/28 06:50:24;;;;;;;15.88;10.07;;;;;;;8.51;100.00;97638.84;4963911;28;20106;-70
2022/04/28 06:53:12;;;;;;;18.90;10.32;;;;;;;8.62;100.00;97638.19;4955320;28;20061;-69
2022/04/28 06:55:41;;;;;;;20.67;11.38;;;;;;;8.68;100.00;97646.41;4978890;28;20459;-69
2022/04/28 06:58:07;;;;;;;18.35;10.13;;;;;;;8.73;100.00;97636.78;4960814;28;20382;-70
2022/04/28 07:00:37;;;;;;;18.83;10.20;;;;;;;8.81;100.00;97644.56;4977445;28;20142;-69
2022/04/28 07:03:03;;;;;;;18.73;10.80;;;;;;;8.88;100.00;97637.34;4979107;28;20046;-69
2022/04/28 07:05:32;;;;;;;18.00;10.20;;;;;;;8.98;100.00;97641.44;4977309;28;20394;-69
2022/04/28 07:08:00;;;;;;;15.13;10.40;;;;;;;9.06;100.00;97641.19;4977897;28;20156;-69
2022/04/28 07:10:31;;;;;;;;;;;;;;;9.16;100.00;97642.41;4977686;28;20062;-70
2022/04/28 07:12:58;;;;;;;18.65;10.77;;;;;;;9.27;100.00;97648.13;4964450;28;19922;-70
2022/04/28 07:15:42;;;;;;;16.50;10.15;;;;;;;9.34;100.00;97643.56;4963694;28;20050;-69
2022/04/28 07:18:39;;;;;;;20.15;10.82;;;;;;;9.43;100.00;97650.31;4961730;28;20066;-69
2022/04/28 07:21:06;;;;;;;18.45;9.98;;;;;;;9.52;100.00;97657.06;4976997;28;20231;-70
2022/04/28 07:23:32;;;;;;;16.65;9.85;;;;;;;9.58;100.00;97656.22;4978462;28;20034;-69
2022/04/28 07:25:58;;;;;;;16.02;10.18;;;;;;;9.66;100.00;97655.16;4980118;28;20043;-70
2022/04/28 07:28:24;;;;;;;17.90;11.32;;;;;;;9.72;100.00;97655.09;4956301;28;20504;-69
2022/04/28 07:31:02;;;;;;;15.45;10.70;;;;;;;9.85;100.00;97661.41;4963305;28;20137;-69
2022/04/28 07:33:48;;;;;;;14.68;9.20;;;;;;;9.94;100.00;97660.94;4962807;28;20137;-69
2022/04/28 07:36:34;;;;;;;18.65;10.20;;;;;;;10.01;100.00;97664.41;4975393;28;20149;-70
2022/04/28 07:39:18;;;;;;;13.65;8.93;;;;;;;10.09;100.00;97652.63;4962228;28;20034;-69
2022/04/28 07:42:07;;;;;;;15.05;9.32;;;;;;;10.18;100.00;97655.84;4959348;28;20506;-70
2022/04/28 07:44:36;;;;;;;21.40;10.02;;;;;;;10.27;100.00;97666.13;4960151;28;20039;-69
2022/04/28 07:47:03;;;;;;;14.35;9.10;;;;;;;10.39;100.00;97660.06;4957832;28;20043;-69
2022/04/28 07:49:33;;;;;;;13.98;9.13;;;;;;;10.51;100.00;97661.81;4977216;28;20236;-69
2022/04/28 07:51:59;;;;;;;16.20;9.18;;;;;;;10.56;100.00;97670.00;4977175;28;20062;-69
2022/04/28 07:54:24;;;;;;;16.85;8.80;;;;;;;10.61;100.00;97666.66;4976651;28;20398;-69
2022/04/28 07:56:50;;;;;;;13.95;8.98;;;;;;;10.70;100.00;97664.53;4963650;28;20082;-69
2022/04/28 07:59:16;;;;;;;15.07;9.13;;;;;;;10.81;100.00;97669.97;4976132;28;20525;-70
2022/04/28 08:01:48;;;;;;;16.67;8.70;;;;;;;10.86;100.00;97670.13;4977576;28;20512;-70
2022/04/28 08:04:14;;;;;;;12.60;7.68;;;;;;;10.90;100.00;97669.72;4976454;28;20067;-71
2022/04/28 08:06:43;;;;;;;16.90;8.32;;;;;;;10.96;100.00;97669.63;4959106;28;20061;-69
2022/04/28 08:09:09;;;;;;;16.85;8.55;;;;;;;11.03;100.00;97669.56;4977538;28;20517;-69
2022/04/28 08:11:34;;;;;;;11.65;7.35;;;;;;;11.14;100.00;97679.56;4961666;28;20378;-69
2022/04/28 08:14:00;;;;;;;15.95;6.93;;;;;;;11.22;100.00;97679.25;4976436;28;20039;-70
2022/04/28 08:16:28;;;;;;;13.50;7.38;;;;;;;11.29;100.00;97677.34;4976848;28;20074;-70
2022/04/28 08:18:54;;;;;;;11.60;7.43;;;;;;;11.36;100.00;97675.41;4960692;28;20414;-69
2022/04/28 08:21:34;;;;;;;11.90;7.20;;;;;;;11.47;100.00;97675.69;4974616;28;20102;-69
2022/04/28 08:24:00;;;;;;;14.32;8.18;;;;;;;11.55;100.00;97675.38;4974657;28;20050;-69
2022/04/28 08:26:25;;;;;;;11.05;7.55;;;;;;;11.59;100.00;97676.56;4961005;28;20100;-69
2022/04/28 08:28:53;;;;;;;10.75;7.13;;;;;;;11.68;100.00;97677.91;4963389;28;20116;-70
2022/04/28 08:31:19;;;;;;;12.43;7.50;;;;;;;11.80;100.00;97684.16;4944247;28;20061;-70
2022/04/28 08:33:45;;;;;;;13.15;7.75;;;;;;;11.91;100.00;97690.63;4976451;28;20054;-69
2022/04/28 08:36:13;;;;;;;11.00;7.43;;;;;;;12.00;100.00;97683.91;4960126;28;20381;-69
2022/04/28 08:38:40;;;;;;;16.40;8.27;;;;;;;12.13;100.00;97685.56;4958025;28;20462;-69
2022/04/28 08:41:09;;;;;;;15.18;7.65;;;;;;;12.15;100.00;97684.31;4977778;28;20072;-69
2022/04/28 08:44:00;;;;;;;13.63;7.40;;;;;;;12.22;100.00;97689.56;4963217;28;20043;-70
2022/04/28 08:49:12;;;;;;;13.90;7.63;;;;;;;12.42;100.00;97692.75;4954378;28;20052;-69
2022/04/28 08:51:40;;;;;;;11.50;7.60;;;;;;;12.57;100.00;97686.97;4976814;28;20035;-70
2022/04/28 08:54:09;;;;;;;14.07;8.02;;;;;;;12.64;100.00;97685.00;4955441;28;20039;-69
2022/04/28 08:56:35;;;;;;;13.93;9.30;;;;;;;12.75;100.00;97684.16;4977388;28;20050;-69
2022/04/28 08:59:04;;;;;;;12.25;8.15;;;;;;;12.94;100.00;97694.81;4953655;28;20081;-70
2022/04/28 09:01:31;;;;;;;13.48;8.30;;;;;;;12.98;100.00;97682.53;4976369;28;20505;-69
2022/04/28 09:04:18;;;;;;;14.27;8.13;;;;;;;13.06;100.00;97685.69;4960807;28;20054;-69
2022/04/28 09:07:06;;;;;;;14.55;8.40;;;;;;;13.11;100.00;97683.13;4961922;28;20102;-71
2022/04/28 09:09:55;;;;;;;14.75;8.80;;;;;;;13.29;100.00;97695.66;4960551;28;20081;-70
2022/04/28 09:12:56;;;;;;;13.68;7.35;;;;;;;13.48;100.00;97692.81;4962804;28;20042;-71
2022/04/28 09:15:32;;;;;;;13.55;6.82;;;;;;;13.67;100.00;97691.59;4961927;28;20540;-69
2022/04/28 09:18:09;;;;;;;13.77;6.90;;;;;;;13.76;100.00;97690.16;4956099;28;20061;-71
2022/04/28 09:20:36;;;;;;;14.18;7.80;;;;;;;13.87;100.00;97689.31;4975744;28;20071;-69
2022/04/28 09:23:02;;;;;;;14.77;6.72;;;;;;;14.02;100.00;97694.19;4960631;28;20385;-71
2022/04/28 09:25:40;;;;;;;13.20;7.60;;;;;;;14.18;100.00;97690.72;4977012;28;20077;-70
2022/04/28 09:28:08;;;;;;;11.38;7.28;;;;;;;14.18;100.00;97690.72;4975861;28;20137;-70
2022/04/28 09:30:49;;;;;;;11.05;7.03;;;;;;;13.92;97.07;97691.28;4976395;28;20342;-70
2022/04/28 09:33:32;;;;;;;9.75;6.03;;;;;;;14.25;98.94;97687.06;4961415;28;20408;-69
2022/04/28 09:36:17;;;;;;;13.48;6.90;;;;;;;14.53;99.08;97684.34;4958130;28;20482;-69
2022/04/28 09:39:08;;;;;;;10.00;6.93;;;;;;;14.88;100.00;97684.13;4958477;28;20112;-69
2022/04/28 09:44:29;;;;;;;9.45;5.05;;;;;;;14.94;100.00;97674.19;4955172;28;20066;-69
2022/04/28 09:47:03;;;;;;;14.77;6.60;;;;;;;15.51;98.81;97673.94;4957488;28;20493;-70
2022/04/28 09:49:30;;;;;;;12.73;6.20;;;;;;;15.80;86.40;97677.31;4975870;28;20046;-71
2022/04/28 09:52:16;;;;;;;9.80;5.70;;;;;;;15.84;82.64;97681.09;4958782;28;20500;-71
2022/04/28 09:55:11;;;;;;;10.52;4.93;;;;;;;16.09;88.73;97680.56;4931156;28;20068;-70
2022/04/28 09:58:07;;;;;;;11.15;6.40;;;;;;;16.16;80.58;97675.78;4956001;28;20122;-69
2022/04/28 10:00:33;;;;;;;12.82;5.30;;;;;;;16.26;77.94;97677.75;4977834;28;20061;-69
2022/04/28 10:03:02;;;;;;;9.55;4.70;;;;;;;16.23;71.22;97681.00;4975115;28;20086;-71
2022/04/28 10:05:35;;;;;;;8.07;4.72;;;;;;;15.75;86.19;97674.53;4975616;28;20446;-69
2022/04/28 10:08:25;;;;;;;9.38;4.90;;;;;;;15.46;96.48;97687.34;4950160;28;20058;-69
2022/04/28 10:10:55;;;;;;;7.88;4.90;;;;;;;15.44;94.65;97686.78;4977622;28;20043;-70
2022/04/28 10:13:21;;;;;;;10.65;4.30;;;;;;;15.75;89.56;97678.03;4961161;28;20090;-70
2022/04/28 10:15:55;;;;;;;;;;;;;;;15.88;71.15;97676.84;4977417;28;20125;-69
2022/04/28 10:18:31;;;;;;;10.27;5.55;;;;;;;16.14;73.41;97684.16;4975121;28;20021;-71
2022/04/28 10:21:00;;;;;;;11.38;5.85;;;;;;;16.36;71.38;97676.00;4962513;28;20073;-71
2022/04/28 10:32:23;;;;;;;8.93;5.40;;;;;;;17.10;87.13;97669.84;4958785;28;20495;-69
2022/04/28 10:35:03;;;;;;;12.00;5.40;;;;;;;17.74;61.12;97669.69;4962584;28;20054;-69
2022/04/28 10:37:40;;;;;;;9.15;5.15;;;;;;;18.17;55.80;97670.34;4961104;28;20145;-70
2022/04/28 10:40:11;;;;;;;9.98;5.45;;;;;;;18.62;55.41;97661.44;4613996;28;9999782;-71
2022/04/28 10:42:37;;;;;;;8.05;4.85;;;;;;;18.95;61.37;97659.28;4630112;28;10000415;-69
2022/04/28 10:45:06;;;;;;;9.85;4.43;;;;;;;19.42;49.55;97666.25;4972107;28;20062;-72
2022/04/28 10:47:37;;;;;;;9.52;4.47;;;;;;;19.35;43.80;97661.09;4959426;28;20086;-70
2022/04/28 10:50:19;;;;;;;8.15;4.75;;;;;;;19.20;42.13;97651.09;4961118;28;20598;-71
2022/04/28 10:52:53;;;;;;;7.65;4.82;;;;;;;19.82;48.10;97651.72;4961500;28;20034;-69
2022/04/28 10:55:19;;;;;;;10.25;5.10;;;;;;;20.48;42.79;97647.84;4962356;28;20453;-70
2022/04/28 10:57:44;;;;;;;8.65;4.35;;;;;;;21.66;40.41;97646.44;4963353;28;20042;-70
2022/04/28 11:00:14;;;;;;;5.57;3.90;;;;;;;23.06;34.93;97651.19;4961402;28;20103;-72
2022/04/28 11:02:41;;;;;;;6.57;3.85;;;;;;;25.55;33.56;97643.97;4964671;28;20070;-70
2022/04/28 11:05:27;;;;;;;8.73;4.05;;;;;;;25.41;35.00;97643.25;4959109;28;20143;-70
2022/04/28 11:07:53;;;;;;;9.65;4.47;;;;;;;25.63;33.67;97639.63;4961654;28;20042;-69
2022/04/28 11:10:19;;;;;;;6.55;3.90;;;;;;;26.74;31.19;97651.09;4975437;28;20089;-70
2022/04/28 11:12:44;;;;;;;8.13;3.70;;;;;;;27.50;31.39;97645.78;4962433;28;20375;-71
2022/04/28 11:15:13;;;;;;;7.55;4.22;;;;;;;27.90;29.93;97643.50;4961263;28;20161;-71
2022/04/28 11:17:45;;;;;;;7.60;4.90;;;;;;;30.05;24.94;97650.00;4975451;28;20113;-70
2022/04/28 11:20:13;;;;;;;12.27;4.82;;;;;;;31.11;24.95;97639.66;4958987;28;20038;-70
2022/04/28 11:22:54;;;;;;;9.45;4.65;;;;;;;31.96;23.12;97643.81;4977072;28;20038;-70
2022/04/28 11:25:22;;;;;;;8.07;4.15;;;;;;;29.01;25.86;97648.47;4958852;28;20054;-70
2022/04/28 11:27:50;;;;;;;7.90;4.32;;;;;;;28.30;26.90;97643.91;4957830;28;20046;-72
2022/04/28 11:30:25;;;;;;;8.40;4.38;;;;;;;27.58;27.94;97636.69;4973418;28;20787;-70
2022/04/28 11:32:56;;;;;;;11.20;4.28;;;;;;;24.43;31.00;97649.53;4960793;28;20042;-70
2022/04/28 11:35:28;;;;;;;8.55;5.15;;;;;;;22.80;35.50;97650.81;4960331;28;20050;-70
2022/04/28 11:37:54;;;;;;;10.52;4.80;;;;;;;25.65;31.32;97640.94;4959973;28;20624;-70
2022/04/28 11:40:22;;;;;;;9.10;5.00;;;;;;;23.72;32.96;97643.69;4960073;28;20046;-72
2022/04/28 11:42:55;;;;;;;6.32;3.85;;;;;;;27.69;26.58;97637.13;4962125;28;20138;-71
2022/04/28 11:45:21;;;;;;;10.23;3.65;;;;;;;31.28;22.80;97634.66;4976988;28;20074;-70
2022/04/28 11:47:49;;;;;;;10.75;3.85;;;;;;;34.67;20.50;97629.34;4961869;28;20478;-71
2022/04/28 11:50:23;;;;;;;7.35;4.40;;;;;;;33.21;20.33;97625.88;4974964;28;20105;-70
2022/04/28 11:53:12;;;;;;;7.53;4.03;;;;;;;35.15;17.96;97631.09;4959468;28;20039;-72
2022/04/28 11:55:40;;;;;;;5.38;3.55;;;;;;;35.84;19.37;97619.41;4963184;28;20055;-70
2022/04/28 11:58:08;;;;;;;8.77;3.58;;;;;;;34.61;21.35;97623.31;4960287;28;20057;-70
2022/04/28 12:00:44;;;;;;;5.35;3.47;;;;;;;34.76;19.51;97630.66;4960337;28;20046;-71
2022/04/28 12:03:22;;;;;;;7.10;3.50;;;;;;;35.43;17.49;97635.38;4962145;28;20039;-72
2022/04/28 12:05:51;;;;;;;5.60;3.63;;;;;;;36.05;17.97;97626.34;4978269;28;20482;-71
2022/04/28 12:08:21;;;;;;;6.38;3.80;;;;;;;33.23;21.87;97626.34;4961541;28;20050;-70
2022/04/28 12:16:18;;;;;;;10.95;4.75;;;;;;;36.04;17.61;97630.31;4963106;28;20047;-70